createdAt,value
2022-11-28T00:00:06.433Z,3.50
2022-11-28T00:02:33.087Z,2.65
2022-11-28T00:04:59.683Z,2.72
2022-11-28T00:07:26.521Z,2.83
2022-11-28T00:09:53.167Z,3.17
2022-11-28T00:12:19.713Z,2.75
2022-11-28T00:14:46.465Z,2.75
2022-11-28T00:17:13.015Z,2.97
2022-11-28T00:19:39.571Z,2.70
2022-11-28T00:22:06.249Z,2.63
2022-11-28T00:24:32.803Z,2.75
2022-11-28T00:26:59.485Z,2.67
2022-11-28T00:29:26.202Z,3.33
2022-11-28T00:31:52.775Z,2.80
2022-11-28T00:34:19.471Z,2.50
2022-11-28T00:36:46.992Z,2.70
2022-11-28T00:39:14.694Z,3.00
2022-11-28T00:41:41.282Z,2.70
2022-11-28T00:44:07.974Z,2.60
2022-11-28T00:46:34.559Z,2.65
2022-11-28T00:49:01.229Z,2.65
2022-11-28T00:51:31.519Z,2.78
2022-11-28T00:53:59.511Z,2.40
2022-11-28T00:56:29.784Z,2.90
2022-11-28T00:58:56.868Z,2.47
2022-11-28T01:01:26.498Z,2.50
2022-11-28T01:03:54.374Z,2.78
2022-11-28T01:06:29.139Z,2.63
2022-11-28T01:08:58.242Z,2.47
2022-11-28T01:11:25.256Z,2.80
2022-11-28T01:13:55.988Z,2.70
2022-11-28T01:16:23.066Z,2.40
2022-11-28T01:18:49.967Z,2.20
2022-11-28T01:21:16.784Z,2.90
2022-11-28T01:23:43.379Z,2.80
2022-11-28T01:26:12.559Z,2.80
2022-11-28T01:28:39.197Z,2.60
2022-11-28T01:31:07.619Z,2.60
2022-11-28T01:33:34.175Z,2.28
2022-11-28T01:36:01.050Z,2.50
2022-11-28T01:38:27.954Z,2.47
2022-11-28T01:40:55.727Z,2.40
2022-11-28T01:43:23.459Z,2.10
2022-11-28T01:45:50.008Z,2.22
2022-11-28T01:48:22.866Z,2.30
2022-11-28T01:50:51.602Z,2.03
2022-11-28T01:53:18.364Z,2.40
2022-11-28T01:56:02.623Z,2.42
2022-11-28T01:58:30.623Z,2.13
2022-11-28T02:00:57.260Z,2.30
2022-11-28T02:03:28.049Z,2.30
2022-11-28T02:05:54.870Z,2.08
2022-11-28T02:08:21.426Z,2.10
2022-11-28T02:11:04.033Z,2.40
2022-11-28T02:13:49.392Z,2.00
2022-11-28T02:16:18.968Z,2.28
2022-11-28T02:18:57.437Z,1.98
2022-11-28T02:21:27.734Z,2.85
2022-11-28T02:24:15.912Z,1.90
2022-11-28T02:27:04.392Z,2.42
2022-11-28T02:30:01.272Z,2.17
2022-11-28T02:32:57.704Z,2.15
2022-11-28T02:35:47.179Z,2.72
2022-11-28T02:38:27.470Z,2.00
2022-11-28T02:41:07.303Z,2.22
2022-11-28T02:43:40.881Z,2.33
2022-11-28T02:46:26.277Z,2.25
2022-11-28T02:49:03.769Z,2.15
2022-11-28T02:51:42.485Z,2.25
2022-11-28T02:54:11.416Z,2.30
2022-11-28T02:56:38.302Z,2.10
2022-11-28T02:59:05.372Z,2.08
2022-11-28T03:01:35.226Z,1.90
2022-11-28T03:04:26.813Z,2.05
2022-11-28T03:07:02.043Z,2.08
2022-11-28T03:09:51.290Z,2.00
2022-11-28T03:12:59.130Z,1.90
2022-11-28T03:15:32.280Z,1.70
2022-11-28T03:18:10.495Z,2.00
2022-11-28T03:20:44.741Z,1.70
2022-11-28T03:23:13.922Z,1.75
2022-11-28T03:25:50.307Z,1.70
2022-11-28T03:28:26.716Z,1.83
2022-11-28T03:31:03.556Z,2.00
2022-11-28T03:33:33.654Z,1.73
2022-11-28T03:36:08.866Z,1.85
2022-11-28T03:38:40.323Z,1.90
2022-11-28T03:41:15.843Z,1.70
2022-11-28T03:43:46.991Z,1.67
2022-11-28T03:46:16.917Z,1.93
2022-11-28T03:48:46.994Z,1.70
2022-11-28T03:51:37.298Z,1.83
2022-11-28T03:54:25.285Z,1.60
2022-11-28T03:57:15.192Z,1.48
2022-11-28T03:59:48.055Z,1.70
2022-11-28T04:02:40.229Z,1.67
2022-11-28T04:05:20.402Z,1.63
2022-11-28T04:07:58.477Z,1.90
2022-11-28T04:10:38.584Z,2.08
2022-11-28T04:13:14.769Z,1.92
2022-11-28T04:15:58.819Z,1.80
2022-11-28T04:18:31.987Z,1.60
2022-11-28T04:21:12.163Z,1.63
2022-11-28T04:23:40.883Z,1.80
2022-11-28T04:26:37.660Z,1.50
2022-11-28T04:29:09.419Z,1.50
2022-11-28T04:31:36.960Z,1.88
2022-11-28T04:34:06.623Z,1.77
2022-11-28T04:36:35.051Z,1.70
2022-11-28T04:39:02.238Z,1.70
2022-11-28T04:41:34.689Z,1.50
2022-11-28T04:44:15.120Z,1.50
2022-11-28T04:46:47.324Z,1.42
2022-11-28T04:49:14.177Z,1.60
2022-11-28T04:51:54.977Z,1.73
2022-11-28T04:54:42.031Z,1.77
2022-11-28T04:57:19.391Z,1.85
2022-11-28T04:59:46.577Z,1.83
2022-11-28T05:02:13.682Z,1.80
2022-11-28T05:04:40.988Z,1.70
2022-11-28T05:07:08.684Z,1.98
2022-11-28T05:09:35.897Z,2.03
2022-11-28T05:12:03.054Z,2.20
2022-11-28T05:14:29.676Z,2.05
2022-11-28T05:16:56.216Z,1.80
2022-11-28T05:19:23.226Z,2.20
2022-11-28T05:21:49.819Z,1.80
2022-11-28T05:24:16.485Z,1.83
2022-11-28T05:26:43.444Z,2.20
2022-11-28T05:29:10.019Z,1.92
2022-11-28T05:31:37.513Z,2.22
2022-11-28T05:34:04.122Z,2.20
2022-11-28T05:36:30.719Z,2.42
2022-11-28T05:38:57.336Z,2.08
2022-11-28T05:41:31.775Z,2.30
2022-11-28T05:43:58.958Z,2.60
2022-11-28T05:46:26.097Z,2.05
2022-11-28T05:48:52.800Z,2.17
2022-11-28T05:51:19.901Z,2.20
2022-11-28T05:53:46.452Z,2.25
2022-11-28T05:56:16.474Z,2.28
2022-11-28T05:58:43.576Z,2.20
2022-11-28T06:01:17.202Z,3.10
2022-11-28T06:03:44.407Z,2.40
2022-11-28T06:06:20.852Z,2.70
2022-11-28T06:08:48.658Z,2.28
2022-11-28T06:11:15.957Z,2.55
2022-11-28T06:13:43.602Z,2.60
2022-11-28T06:16:12.078Z,2.42
2022-11-28T06:18:39.421Z,2.15
2022-11-28T06:21:07.596Z,2.40
2022-11-28T06:23:34.163Z,2.80
2022-11-28T06:26:06.454Z,2.38
2022-11-28T06:28:33.757Z,2.92
2022-11-28T06:31:00.373Z,2.42
2022-11-28T06:33:26.919Z,2.33
2022-11-28T06:35:59.827Z,2.25
2022-11-28T06:38:26.375Z,2.22
2022-11-28T06:40:56.715Z,2.67
2022-11-28T06:43:23.412Z,2.40
2022-11-28T06:45:49.965Z,3.00
2022-11-28T06:48:16.506Z,2.55
2022-11-28T06:50:43.032Z,2.58
2022-11-28T06:53:09.547Z,2.75
2022-11-28T06:55:36.223Z,2.75
2022-11-28T06:58:02.815Z,3.20
2022-11-28T07:00:29.377Z,2.90
2022-11-28T07:02:56.219Z,3.25
2022-11-28T07:05:22.952Z,3.45
2022-11-28T07:07:54.260Z,3.35
2022-11-28T07:10:21.762Z,3.35
2022-11-28T07:12:56.607Z,3.72
2022-11-28T07:15:23.592Z,3.88
2022-11-28T07:17:50.345Z,4.10
2022-11-28T07:20:17.638Z,3.58
2022-11-28T07:22:46.848Z,4.40
2022-11-28T07:25:14.870Z,3.97
2022-11-28T07:27:42.184Z,3.33
2022-11-28T07:30:10.104Z,3.30
2022-11-28T07:32:39.630Z,3.28
2022-11-28T07:35:08.329Z,4.45
2022-11-28T07:37:35.118Z,3.92
2022-11-28T07:40:01.772Z,3.95
2022-11-28T07:42:28.367Z,3.42
2022-11-28T07:44:54.938Z,3.47
2022-11-28T07:47:22.089Z,3.28
2022-11-28T07:49:48.603Z,3.63
2022-11-28T07:52:15.368Z,3.80
2022-11-28T07:54:42.133Z,3.67
2022-11-28T07:57:13.211Z,4.55
2022-11-28T07:59:40.325Z,4.18
2022-11-28T08:02:07.394Z,3.30
2022-11-28T08:04:34.179Z,3.97
2022-11-28T08:07:00.667Z,3.40
2022-11-28T08:09:27.206Z,3.53
2022-11-28T08:11:56.379Z,3.78
2022-11-28T08:14:23.254Z,3.35
2022-11-28T08:16:49.822Z,3.40
2022-11-28T08:19:16.590Z,3.92
2022-11-28T08:21:43.276Z,3.75
2022-11-28T08:24:11.114Z,3.65
2022-11-28T08:26:38.199Z,3.85
2022-11-28T08:29:04.782Z,3.30
2022-11-28T08:31:34.067Z,3.60
2022-11-28T08:34:02.278Z,4.68
2022-11-28T08:36:29.530Z,3.55
2022-11-28T08:39:16.663Z,4.63
2022-11-28T08:41:43.315Z,3.92
2022-11-28T08:44:09.946Z,4.05
2022-11-28T08:46:36.727Z,5.45
2022-11-28T08:49:04.734Z,4.32
2022-11-28T08:51:31.835Z,4.10
2022-11-28T08:53:59.846Z,3.55
2022-11-28T08:56:27.190Z,3.40
2022-11-28T08:58:54.467Z,3.90
2022-11-28T09:01:23.051Z,3.78
2022-11-28T09:03:49.939Z,3.60
2022-11-28T09:06:17.211Z,3.85
2022-11-28T09:08:44.453Z,4.15
2022-11-28T09:11:13.316Z,3.60
2022-11-28T09:13:40.174Z,4.32
2022-11-28T09:16:07.493Z,4.03
2022-11-28T09:18:34.147Z,3.60
2022-11-28T09:21:01.818Z,3.97
2022-11-28T09:23:29.225Z,3.70
2022-11-28T09:25:56.514Z,4.30
2022-11-28T09:28:23.944Z,3.78
2022-11-28T09:30:50.503Z,3.80
2022-11-28T09:33:17.030Z,4.32
2022-11-28T09:35:43.603Z,3.90
2022-11-28T09:38:10.069Z,3.30
2022-11-28T09:40:42.732Z,3.95
2022-11-28T09:43:38.640Z,3.65
2022-11-28T09:46:10.061Z,3.78
2022-11-28T09:48:43.406Z,3.22
2022-11-28T09:51:22.620Z,3.47
2022-11-28T09:54:27.737Z,3.83
2022-11-28T09:56:54.407Z,3.28
2022-11-28T09:59:25.861Z,3.75
2022-11-28T10:02:13.735Z,3.53
2022-11-28T10:04:51.635Z,3.83
2022-11-28T10:07:55.184Z,3.28
2022-11-28T10:10:35.295Z,3.95
2022-11-28T10:13:23.089Z,3.30
2022-11-28T10:16:15.730Z,3.83
2022-11-28T10:18:52.609Z,3.03
2022-11-28T10:21:35.677Z,3.40
2022-11-28T10:24:05.694Z,3.03
2022-11-28T10:26:41.764Z,2.70
2022-11-28T10:29:34.710Z,2.85
2022-11-28T10:32:03.962Z,3.25
2022-11-28T10:34:49.143Z,3.13
2022-11-28T10:37:24.996Z,2.95
2022-11-28T10:39:52.211Z,3.30
2022-11-28T10:42:23.648Z,3.10
2022-11-28T10:44:57.645Z,2.88
2022-11-28T10:47:39.683Z,3.15
2022-11-28T10:53:02.387Z,2.55
2022-11-28T10:55:37.875Z,2.60
2022-11-28T10:58:14.930Z,2.60
2022-11-28T11:00:45.241Z,2.95
2022-11-28T11:03:14.110Z,2.92
2022-11-28T11:05:41.447Z,2.55
2022-11-28T11:08:10.758Z,2.60
2022-11-28T11:10:44.363Z,2.42
2022-11-28T11:13:23.696Z,2.60
2022-11-28T11:15:58.871Z,2.67
2022-11-28T11:18:29.531Z,2.72
2022-11-28T11:21:15.735Z,2.40
2022-11-28T11:23:42.747Z,2.63
2022-11-28T11:26:26.430Z,2.50
2022-11-28T11:28:53.298Z,2.45
2022-11-28T11:31:26.664Z,2.25
2022-11-28T11:34:02.872Z,2.30
2022-11-28T11:36:32.499Z,2.10
2022-11-28T11:39:11.392Z,2.28
2022-11-28T11:41:40.099Z,2.10
2022-11-28T11:44:15.840Z,2.05
2022-11-28T11:47:05.401Z,2.08
2022-11-28T11:49:39.329Z,2.22
2022-11-28T11:52:14.618Z,2.30
2022-11-28T11:54:47.166Z,1.98
2022-11-28T12:00:07.941Z,1.80
2022-11-28T12:02:46.886Z,1.67
2022-11-28T12:05:17.107Z,2.53
2022-11-28T12:07:46.672Z,2.10
2022-11-28T12:10:17.329Z,1.90
2022-11-28T12:12:43.812Z,2.03
2022-11-28T12:15:33.066Z,2.10
2022-11-28T12:18:15.733Z,2.05
2022-11-28T12:20:48.724Z,2.20
2022-11-28T12:23:17.579Z,1.52
2022-11-28T12:25:44.368Z,1.45
2022-11-28T12:28:23.121Z,2.03
2022-11-28T12:31:15.348Z,1.55
2022-11-28T12:36:42.097Z,1.50
2022-11-28T12:39:18.622Z,1.50
2022-11-28T12:42:13.167Z,1.67
2022-11-28T12:44:55.093Z,1.52
2022-11-28T12:47:37.905Z,1.50
2022-11-28T12:50:15.179Z,1.80
2022-11-28T12:53:18.779Z,1.80
2022-11-28T12:56:03.655Z,1.85
2022-11-28T12:58:35.531Z,1.90
2022-11-28T13:04:17.740Z,1.92
2022-11-28T13:07:02.607Z,2.00
2022-11-28T13:09:38.149Z,2.20
2022-11-28T13:12:28.513Z,2.28
2022-11-28T13:14:57.014Z,2.47
2022-11-28T13:17:48.451Z,2.13
2022-11-28T13:20:22.739Z,1.67
2022-11-28T13:22:55.028Z,1.85
2022-11-28T13:25:47.807Z,1.83
2022-11-28T13:28:36.291Z,1.88
2022-11-28T13:31:07.349Z,1.80
2022-11-28T13:33:56.332Z,1.50
2022-11-28T13:40:03.439Z,1.40
2022-11-28T13:45:39.142Z,2.13
2022-11-28T13:48:57.417Z,1.77
2022-11-28T13:51:30.975Z,1.40
2022-11-28T13:54:17.546Z,1.48
2022-11-28T13:57:05.485Z,1.30
2022-11-28T13:59:32.521Z,1.40
2022-11-28T14:02:05.798Z,1.80
2022-11-28T14:04:33.013Z,1.60
2022-11-28T14:07:02.893Z,1.30
2022-11-28T14:09:53.748Z,1.42
2022-11-28T14:12:29.865Z,1.73
2022-11-28T14:15:07.259Z,2.00
2022-11-28T14:17:45.853Z,1.73
2022-11-28T14:20:32.754Z,1.40
2022-11-28T14:23:05.425Z,1.20
2022-11-28T14:25:34.346Z,1.40
2022-11-28T14:28:06.274Z,1.38
2022-11-28T14:33:21.279Z,1.25
2022-11-28T14:35:50.867Z,1.10
2022-11-28T14:38:33.766Z,1.40
2022-11-28T14:41:05.788Z,1.20
2022-11-28T14:43:48.212Z,1.10
2022-11-28T14:46:20.776Z,1.10
2022-11-28T14:48:59.681Z,1.10
2022-11-28T14:51:56.518Z,1.10
2022-11-28T14:54:37.833Z,1.05
2022-11-28T14:57:13.578Z,1.10
2022-11-28T14:59:40.174Z,1.00
2022-11-28T15:02:12.818Z,1.40
2022-11-28T15:04:57.869Z,1.20
2022-11-28T15:07:34.562Z,1.25
2022-11-28T15:10:09.941Z,1.30
2022-11-28T15:12:58.834Z,1.33
2022-11-28T15:15:25.509Z,1.40
2022-11-28T15:17:53.799Z,1.40
2022-11-28T15:20:28.457Z,1.30
2022-11-28T15:22:55.003Z,1.50
2022-11-28T15:25:35.346Z,1.33
2022-11-28T15:28:15.180Z,1.23
2022-11-28T15:30:47.312Z,1.63
2022-11-28T15:33:14.401Z,1.40
2022-11-28T15:35:55.367Z,1.50
2022-11-28T15:38:21.988Z,1.30
2022-11-28T15:40:52.958Z,1.33
2022-11-28T15:43:19.980Z,1.23
2022-11-28T15:45:50.774Z,1.30
2022-11-28T15:48:40.062Z,1.35
2022-11-28T15:51:08.551Z,1.20
2022-11-28T15:53:40.516Z,1.10
2022-11-28T15:58:34.390Z,1.15
2022-11-28T16:01:13.010Z,1.20
2022-11-28T16:03:49.955Z,1.10
2022-11-28T16:06:18.002Z,1.10
2022-11-28T16:08:51.857Z,0.90
2022-11-28T16:11:20.086Z,1.00
2022-11-28T16:13:47.393Z,1.20
2022-11-28T16:16:19.771Z,1.00
2022-11-28T16:18:53.553Z,1.17
2022-11-28T16:21:26.647Z,1.13
2022-11-28T16:23:53.170Z,0.90
2022-11-28T16:26:30.001Z,1.00
2022-11-28T16:29:03.797Z,1.00
2022-11-28T16:31:30.756Z,1.13
2022-11-28T16:33:58.082Z,0.98
2022-11-28T16:36:36.388Z,1.00
2022-11-28T16:39:10.760Z,1.00
2022-11-28T16:41:43.080Z,1.20
2022-11-28T16:44:15.175Z,1.02
2022-11-28T16:46:55.355Z,1.00
2022-11-28T16:49:38.722Z,1.13
2022-11-28T16:52:26.223Z,1.20
2022-11-28T16:54:54.021Z,0.95
2022-11-28T16:57:20.902Z,1.00
2022-11-28T16:59:49.223Z,1.17
2022-11-28T17:02:20.468Z,1.23
2022-11-28T17:04:48.156Z,1.30
2022-11-28T17:07:17.172Z,1.35
2022-11-28T17:09:45.689Z,1.25
2022-11-28T17:12:30.224Z,1.52
2022-11-28T17:14:58.289Z,1.30
2022-11-28T17:17:25.280Z,1.70
2022-11-28T17:19:52.251Z,1.50
2022-11-28T17:22:24.120Z,1.55
2022-11-28T17:24:51.832Z,1.75
2022-11-28T17:27:18.481Z,1.70
2022-11-28T17:29:45.158Z,1.85
2022-11-28T17:32:13.524Z,2.00
2022-11-28T17:34:42.040Z,1.70
2022-11-28T17:37:09.389Z,1.70
2022-11-28T17:39:35.959Z,1.65
2022-11-28T17:42:02.627Z,1.70
2022-11-28T17:44:34.451Z,1.85
2022-11-28T17:47:02.225Z,1.80
2022-11-28T17:49:29.547Z,1.45
2022-11-28T17:51:56.724Z,1.80
2022-11-28T17:54:24.756Z,2.00
2022-11-28T17:56:52.631Z,1.73
2022-11-28T17:59:22.035Z,2.20
2022-11-28T18:01:48.757Z,1.63
2022-11-28T18:04:17.950Z,1.73
2022-11-28T18:06:45.794Z,1.50
2022-11-28T18:09:13.260Z,1.60
2022-11-28T18:11:41.004Z,1.88
2022-11-28T18:14:08.054Z,1.52
2022-11-28T18:16:36.400Z,1.70
2022-11-28T18:19:04.217Z,2.00
2022-11-28T18:21:31.357Z,1.83
2022-11-28T18:23:58.073Z,1.70
2022-11-28T18:26:26.065Z,1.90
2022-11-28T18:28:52.939Z,1.70
2022-11-28T18:31:25.304Z,1.75
2022-11-28T18:33:56.141Z,1.92
2022-11-28T18:36:27.306Z,1.98
2022-11-28T18:39:07.421Z,2.03
2022-11-28T18:41:34.047Z,2.00
2022-11-28T18:44:03.775Z,1.88
2022-11-28T18:46:31.008Z,2.03
2022-11-28T18:48:57.600Z,2.00
2022-11-28T18:51:28.941Z,2.47
2022-11-28T18:53:56.475Z,1.90
2022-11-28T18:56:23.675Z,1.92
2022-11-28T18:58:51.930Z,1.90
2022-11-28T19:01:19.652Z,2.30
2022-11-28T19:03:51.470Z,2.22
2022-11-28T19:06:18.493Z,2.33
2022-11-28T19:08:45.085Z,2.30
2022-11-28T19:11:14.570Z,2.10
2022-11-28T19:13:45.714Z,1.75
2022-11-28T19:16:32.862Z,2.13
2022-11-28T19:19:01.397Z,1.95
2022-11-28T19:21:31.500Z,2.00
2022-11-28T19:23:59.575Z,2.00
2022-11-28T19:26:28.973Z,1.73
2022-11-28T19:28:55.915Z,1.73
2022-11-28T19:31:26.999Z,1.60
2022-11-28T19:34:04.225Z,1.83
2022-11-28T19:36:32.895Z,1.42
2022-11-28T19:39:00.286Z,2.53
2022-11-28T19:41:27.999Z,1.80
2022-11-28T19:43:54.570Z,1.80
2022-11-28T19:46:21.358Z,1.75
2022-11-28T19:48:48.008Z,1.60
2022-11-28T19:51:15.839Z,1.90
2022-11-28T19:53:43.427Z,1.50
2022-11-28T19:56:17.122Z,1.83
2022-11-28T19:58:44.034Z,1.65
2022-11-28T20:01:16.090Z,1.65
2022-11-28T20:03:43.465Z,1.90
2022-11-28T20:06:12.407Z,2.00
2022-11-28T20:08:39.603Z,1.75
2022-11-28T20:11:08.528Z,2.05
2022-11-28T20:13:35.232Z,1.92
2022-11-28T20:16:03.795Z,2.00
2022-11-28T20:18:30.316Z,1.88
2022-11-28T20:21:06.684Z,1.80
2022-11-28T20:23:33.411Z,1.95
2022-11-28T20:26:06.249Z,2.00
2022-11-28T20:28:34.403Z,1.88
2022-11-28T20:31:01.463Z,2.05
2022-11-28T20:33:28.145Z,2.38
2022-11-28T20:36:04.907Z,1.88
2022-11-28T20:38:31.511Z,1.90
2022-11-28T20:41:02.793Z,2.30
2022-11-28T20:43:33.444Z,2.20
2022-11-28T20:46:04.941Z,2.50
2022-11-28T20:48:31.709Z,2.92
2022-11-28T20:50:58.814Z,2.55
2022-11-28T20:53:27.035Z,2.70
2022-11-28T20:56:01.823Z,3.22
2022-11-28T20:58:29.118Z,3.08
2022-11-28T21:00:56.403Z,2.40
2022-11-28T21:03:23.675Z,2.47
2022-11-28T21:05:50.491Z,3.00
2022-11-28T21:08:17.074Z,2.97
2022-11-28T21:10:43.860Z,2.80
2022-11-28T21:13:10.542Z,2.85
2022-11-28T21:15:47.584Z,3.28
2022-11-28T21:18:15.286Z,2.70
2022-11-28T21:20:45.440Z,2.42
2022-11-28T21:23:14.137Z,2.75
2022-11-28T21:25:41.915Z,2.60
2022-11-28T21:28:10.358Z,2.40
2022-11-28T21:30:45.882Z,2.63
2022-11-28T21:33:13.050Z,2.38
2022-11-28T21:35:40.065Z,2.92
2022-11-28T21:38:07.033Z,3.15
2022-11-28T21:40:33.781Z,2.88
2022-11-28T21:43:00.361Z,2.63
2022-11-28T21:45:27.298Z,2.67
2022-11-28T21:47:54.023Z,2.85
2022-11-28T21:50:20.719Z,2.83
2022-11-28T21:52:47.394Z,2.75
2022-11-28T21:55:13.942Z,2.67
2022-11-28T21:57:42.372Z,3.17
2022-11-28T22:00:25.608Z,3.13
2022-11-28T22:03:03.300Z,2.90
2022-11-28T22:05:31.478Z,2.75
2022-11-28T22:07:58.261Z,2.75
2022-11-28T22:10:24.865Z,2.55
2022-11-28T22:12:51.410Z,2.35
2022-11-28T22:15:18.293Z,2.78
2022-11-28T22:17:44.802Z,2.20
2022-11-28T22:20:11.822Z,2.40
2022-11-28T22:22:38.468Z,2.30
2022-11-28T22:25:05.474Z,2.97
2022-11-28T22:27:32.333Z,1.90
2022-11-28T22:29:59.000Z,2.08
2022-11-28T22:32:25.460Z,2.30
2022-11-28T22:34:51.987Z,2.10
2022-11-28T22:37:18.563Z,2.25
2022-11-28T22:39:45.028Z,1.98
2022-11-28T22:42:11.578Z,2.05
2022-11-28T22:44:38.103Z,1.95
2022-11-28T22:47:04.858Z,2.20
2022-11-28T22:49:31.438Z,2.03
2022-11-28T22:51:58.027Z,2.83
2022-11-28T22:54:24.495Z,2.03
2022-11-28T22:56:53.001Z,2.10
2022-11-28T22:59:19.576Z,1.98
2022-11-28T23:01:46.161Z,2.30
2022-11-28T23:04:12.937Z,1.83
2022-11-28T23:06:39.613Z,2.10
2022-11-28T23:09:07.865Z,2.00
2022-11-28T23:11:36.052Z,1.88
2022-11-28T23:14:03.195Z,2.10
2022-11-28T23:16:32.550Z,1.80
2022-11-28T23:19:01.043Z,1.52
2022-11-28T23:21:33.200Z,1.80
2022-11-28T23:23:59.691Z,1.88
2022-11-28T23:26:28.492Z,1.70
2022-11-28T23:28:55.637Z,1.80
2022-11-28T23:31:25.158Z,2.10
2022-11-28T23:33:52.865Z,1.90
2022-11-28T23:36:27.568Z,1.90
2022-11-28T23:38:56.008Z,1.88
2022-11-28T23:41:23.101Z,1.67
2022-11-28T23:43:50.081Z,1.77
2022-11-28T23:46:17.545Z,1.50
2022-11-28T23:48:44.981Z,1.60
2022-11-28T23:51:15.142Z,1.70
2022-11-28T23:53:42.376Z,1.55
2022-11-28T23:56:11.951Z,1.50
2022-11-28T23:58:39.301Z,1.73
